AFL1833 UMMS-UUEE
Flight info
| Callsign | AFL1833 |
|---|---|
| Flight time | 1h 0m |
| Altitude | 37000 |
| Route | AGNEF2F AGNEF N869 RATIN L999 AGLAN M864 DIPOP DIPOP3F |
| Aircraft | B38M/M-SDE1FGHILORVWXY/HB1 |
Departure
| Time | 2026-05-05 13:50 |
|---|---|
| Airport | Minsk National Airport (UMMS) |
Arrival
| Time | 2026-05-05 14:50 |
|---|---|
| Airport | Sheremetyevo International Airport (UUEE) |
| Time | Latitude | Longitude | Altitude | Speed | Heading |
|---|---|---|---|---|---|
| 2026-05-05 13:29 | 53.89135 | 28.02749 | 690 ft | 0 kts | 48° |
| 2026-05-05 13:33 | 53.89135 | 28.02748 | 690 ft | 1 kts | 48° |
| 2026-05-05 13:33 | 53.89125 | 28.02730 | 690 ft | 2 kts | 48° |
| 2026-05-05 13:33 | 53.89115 | 28.02711 | 690 ft | 2 kts | 48° |
| 2026-05-05 13:34 | 53.89105 | 28.02692 | 690 ft | 2 kts | 48° |
| 2026-05-05 13:34 | 53.89095 | 28.02673 | 690 ft | 2 kts | 52° |
| 2026-05-05 13:34 | 53.89088 | 28.02651 | 690 ft | 2 kts | 66° |
| 2026-05-05 13:34 | 53.89083 | 28.02628 | 690 ft | 1 kts | 77° |
| 2026-05-05 13:35 | 53.89080 | 28.02612 | 690 ft | 2 kts | 72° |
| 2026-05-05 13:35 | 53.89074 | 28.02588 | 690 ft | 2 kts | 60° |
| 2026-05-05 13:35 | 53.89066 | 28.02567 | 690 ft | 1 kts | 51° |
| 2026-05-05 13:35 | 53.89062 | 28.02559 | 690 ft | 1 kts | 47° |
| 2026-05-05 13:36 | 53.89061 | 28.02557 | 690 ft | 0 kts | 48° |
| 2026-05-05 13:40 | 53.89061 | 28.02556 | 690 ft | 3 kts | 48° |
| 2026-05-05 13:40 | 53.89074 | 28.02664 | 690 ft | 10 kts | 120° |
| 2026-05-05 13:40 | 53.89027 | 28.02744 | 690 ft | 8 kts | 140° |
| 2026-05-05 13:41 | 53.88986 | 28.02804 | 690 ft | 6 kts | 139° |
| 2026-05-05 13:41 | 53.88900 | 28.02932 | 690 ft | 19 kts | 140° |
| 2026-05-05 13:41 | 53.88824 | 28.03052 | 690 ft | 12 kts | 127° |
| 2026-05-05 13:41 | 53.88800 | 28.03179 | 690 ft | 13 kts | 100° |
| 2026-05-05 13:42 | 53.88792 | 28.03370 | 690 ft | 15 kts | 83° |
| 2026-05-05 13:42 | 53.88810 | 28.03531 | 690 ft | 12 kts | 64° |
| 2026-05-05 13:42 | 53.88859 | 28.03635 | 690 ft | 9 kts | 47° |
| 2026-05-05 13:42 | 53.88905 | 28.03709 | 690 ft | 8 kts | 45° |
| 2026-05-05 13:43 | 53.88908 | 28.03850 | 690 ft | 17 kts | 122° |
| 2026-05-05 13:43 | 53.88837 | 28.04003 | 690 ft | 20 kts | 130° |
| 2026-05-05 13:43 | 53.88841 | 28.04170 | 690 ft | 19 kts | 51° |
| 2026-05-05 13:43 | 53.88969 | 28.04426 | 690 ft | 27 kts | 49° |
| 2026-05-05 13:44 | 53.89034 | 28.04544 | 690 ft | 7 kts | 52° |
| 2026-05-05 13:44 | 53.89102 | 28.04678 | 690 ft | 22 kts | 48° |
| 2026-05-05 13:44 | 53.89183 | 28.04848 | 690 ft | 8 kts | 69° |
| 2026-05-05 13:44 | 53.89129 | 28.04999 | 690 ft | 24 kts | 140° |
| 2026-05-05 13:45 | 53.89018 | 28.05160 | 690 ft | 17 kts | 130° |
| 2026-05-05 13:45 | 53.88923 | 28.05292 | 690 ft | 18 kts | 141° |
| 2026-05-05 13:45 | 53.88761 | 28.05527 | 690 ft | 44 kts | 141° |
| 2026-05-05 13:45 | 53.88516 | 28.05878 | 690 ft | 43 kts | 136° |
| 2026-05-05 13:46 | 53.88323 | 28.06187 | 690 ft | 33 kts | 139° |
| 2026-05-05 13:46 | 53.88172 | 28.06410 | 690 ft | 24 kts | 139° |
| 2026-05-05 13:46 | 53.88065 | 28.06576 | 690 ft | 17 kts | 136° |
| 2026-05-05 13:46 | 53.87969 | 28.06724 | 690 ft | 19 kts | 138° |
| 2026-05-05 13:47 | 53.87950 | 28.06873 | 690 ft | 0 kts | 52° |
| 2026-05-05 13:47 | 53.87951 | 28.06875 | 690 ft | 0 kts | 45° |
| 2026-05-05 13:47 | 53.87974 | 28.06915 | 690 ft | 0 kts | 42° |
| 2026-05-05 13:48 | 53.87989 | 28.06942 | 690 ft | 11 kts | 47° |
| 2026-05-05 13:48 | 53.88031 | 28.07007 | 690 ft | 4 kts | 10° |
| 2026-05-05 13:48 | 53.88071 | 28.06977 | 690 ft | 4 kts | 319° |
| 2026-05-05 13:48 | 53.88071 | 28.06976 | 690 ft | 0 kts | 318° |
| 2026-05-05 13:49 | 53.88101 | 28.06934 | 690 ft | 26 kts | 320° |
| 2026-05-05 13:49 | 53.88415 | 28.06430 | 690 ft | 96 kts | 321° |
| 2026-05-05 13:50 | 53.89079 | 28.05479 | 691 ft | 153 kts | 318° |
| 2026-05-05 13:50 | 53.89939 | 28.04174 | 1032 ft | 172 kts | 326° |
| 2026-05-05 13:50 | 53.91029 | 28.03126 | 1534 ft | 186 kts | 332° |
| 2026-05-05 13:50 | 53.92069 | 28.02028 | 2425 ft | 174 kts | 326° |
| 2026-05-05 13:51 | 53.93134 | 28.00877 | 2484 ft | 209 kts | 331° |
| 2026-05-05 13:51 | 53.94490 | 27.99600 | 2688 ft | 235 kts | 327° |
| 2026-05-05 13:51 | 53.95584 | 27.97592 | 3521 ft | 232 kts | 307° |
| 2026-05-05 13:51 | 53.96818 | 27.95872 | 4103 ft | 241 kts | 344° |
| 2026-05-05 13:52 | 53.98459 | 27.95946 | 4761 ft | 244 kts | 25° |
| 2026-05-05 13:52 | 53.99902 | 27.97435 | 5512 ft | 245 kts | 30° |
| 2026-05-05 13:52 | 54.01487 | 27.98597 | 6170 ft | 250 kts | 19° |
| 2026-05-05 13:52 | 54.03122 | 27.99546 | 6863 ft | 253 kts | 25° |
| 2026-05-05 13:53 | 54.04586 | 28.01149 | 7516 ft | 256 kts | 45° |
| 2026-05-05 13:53 | 54.05687 | 28.03581 | 8094 ft | 262 kts | 63° |
| 2026-05-05 13:53 | 54.06286 | 28.06492 | 8126 ft | 263 kts | 82° |
| 2026-05-05 13:53 | 54.06413 | 28.09573 | 8138 ft | 257 kts | 91° |
| 2026-05-05 13:54 | 54.06372 | 28.12621 | 8136 ft | 258 kts | 92° |
| 2026-05-05 13:54 | 54.06319 | 28.15684 | 8135 ft | 258 kts | 92° |
| 2026-05-05 13:54 | 54.06287 | 28.18731 | 8169 ft | 263 kts | 91° |
| 2026-05-05 13:54 | 54.06282 | 28.21909 | 8580 ft | 276 kts | 88° |
| 2026-05-05 13:55 | 54.06422 | 28.25251 | 9123 ft | 284 kts | 85° |
| 2026-05-05 13:55 | 54.06642 | 28.28590 | 9751 ft | 288 kts | 79° |
| 2026-05-05 13:55 | 54.07316 | 28.31807 | 10410 ft | 289 kts | 64° |
| 2026-05-05 13:55 | 54.08251 | 28.34858 | 11044 ft | 292 kts | 62° |
| 2026-05-05 13:56 | 54.09237 | 28.37884 | 11656 ft | 295 kts | 61° |
| 2026-05-05 13:56 | 54.10240 | 28.40937 | 12267 ft | 298 kts | 61° |
| 2026-05-05 13:56 | 54.11258 | 28.44033 | 12858 ft | 300 kts | 61° |
| 2026-05-05 13:56 | 54.12284 | 28.47154 | 13436 ft | 303 kts | 61° |
| 2026-05-05 13:57 | 54.13311 | 28.50281 | 14000 ft | 306 kts | 61° |
| 2026-05-05 13:57 | 54.14347 | 28.53436 | 14550 ft | 308 kts | 61° |
| 2026-05-05 13:57 | 54.15392 | 28.56620 | 15089 ft | 311 kts | 61° |
| 2026-05-05 13:57 | 54.16459 | 28.59871 | 15623 ft | 313 kts | 61° |
| 2026-05-05 13:58 | 54.17512 | 28.63085 | 16135 ft | 316 kts | 61° |
| 2026-05-05 13:58 | 54.18598 | 28.66400 | 16645 ft | 318 kts | 62° |
| 2026-05-05 13:58 | 54.19671 | 28.69675 | 17134 ft | 321 kts | 62° |
| 2026-05-05 13:58 | 54.20768 | 28.73029 | 17621 ft | 323 kts | 62° |
| 2026-05-05 13:59 | 54.22969 | 28.79763 | 18551 ft | 328 kts | 62° |
| 2026-05-05 13:59 | 54.24079 | 28.83164 | 19001 ft | 330 kts | 62° |
| 2026-05-05 14:00 | 54.26345 | 28.90124 | 19498 ft | 347 kts | 62° |
| 2026-05-05 14:00 | 54.27132 | 28.92544 | 19538 ft | 357 kts | 62° |
| 2026-05-05 14:00 | 54.28770 | 28.97579 | 19733 ft | 370 kts | 61° |
| 2026-05-05 14:00 | 54.30025 | 29.01438 | 20093 ft | 374 kts | 61° |
| 2026-05-05 14:01 | 54.31300 | 29.05360 | 20483 ft | 376 kts | 61° |
| 2026-05-05 14:01 | 54.32577 | 29.09298 | 20869 ft | 379 kts | 61° |
| 2026-05-05 14:01 | 54.33599 | 29.12452 | 21176 ft | 380 kts | 61° |
| 2026-05-05 14:01 | 54.34648 | 29.15690 | 21478 ft | 382 kts | 61° |
| 2026-05-05 14:02 | 54.35947 | 29.19707 | 21849 ft | 384 kts | 61° |
| 2026-05-05 14:02 | 54.37239 | 29.23705 | 22202 ft | 386 kts | 61° |
| 2026-05-05 14:02 | 54.38547 | 29.27756 | 22557 ft | 388 kts | 61° |
| 2026-05-05 14:02 | 54.39837 | 29.31761 | 22890 ft | 391 kts | 61° |
| 2026-05-05 14:03 | 54.41154 | 29.35853 | 23228 ft | 392 kts | 61° |
| 2026-05-05 14:03 | 54.42482 | 29.39980 | 23554 ft | 395 kts | 61° |
| 2026-05-05 14:03 | 54.43798 | 29.44078 | 23874 ft | 396 kts | 61° |
| 2026-05-05 14:03 | 54.45138 | 29.48256 | 24190 ft | 398 kts | 61° |
| 2026-05-05 14:04 | 54.46469 | 29.52414 | 24493 ft | 400 kts | 61° |
| 2026-05-05 14:04 | 54.47822 | 29.56643 | 24798 ft | 402 kts | 61° |
| 2026-05-05 14:04 | 54.49169 | 29.60858 | 25088 ft | 404 kts | 61° |
| 2026-05-05 14:04 | 54.50521 | 29.65096 | 25379 ft | 406 kts | 62° |
| 2026-05-05 14:05 | 54.51879 | 29.69361 | 25659 ft | 408 kts | 62° |
| 2026-05-05 14:05 | 54.53231 | 29.73607 | 25932 ft | 409 kts | 62° |
| 2026-05-05 14:05 | 54.54599 | 29.77914 | 26207 ft | 411 kts | 62° |
| 2026-05-05 14:05 | 54.55978 | 29.82256 | 26522 ft | 411 kts | 62° |
| 2026-05-05 14:06 | 54.57331 | 29.86526 | 26852 ft | 411 kts | 62° |
| 2026-05-05 14:06 | 54.58701 | 29.90855 | 27184 ft | 411 kts | 62° |
| 2026-05-05 14:06 | 54.60068 | 29.95181 | 27516 ft | 410 kts | 62° |
| 2026-05-05 14:06 | 54.61438 | 29.99524 | 27842 ft | 409 kts | 62° |
| 2026-05-05 14:07 | 54.62791 | 30.03820 | 28161 ft | 409 kts | 62° |
| 2026-05-05 14:07 | 54.64146 | 30.08124 | 28470 ft | 408 kts | 62° |
| 2026-05-05 14:07 | 54.65496 | 30.12420 | 28774 ft | 408 kts | 62° |
| 2026-05-05 14:07 | 54.66840 | 30.16703 | 29070 ft | 407 kts | 62° |
| 2026-05-05 14:08 | 54.68178 | 30.20975 | 29322 ft | 408 kts | 62° |
| 2026-05-05 14:08 | 54.69547 | 30.25355 | 29383 ft | 414 kts | 62° |
| 2026-05-05 14:08 | 54.72326 | 30.34261 | 29495 ft | 425 kts | 62° |
| 2026-05-05 14:09 | 54.75153 | 30.43346 | 29595 ft | 435 kts | 62° |
| 2026-05-05 14:09 | 54.78070 | 30.52753 | 29696 ft | 445 kts | 62° |
| 2026-05-05 14:10 | 54.81014 | 30.62277 | 29796 ft | 455 kts | 62° |
| 2026-05-05 14:10 | 54.82516 | 30.67145 | 29922 ft | 457 kts | 63° |
| 2026-05-05 14:10 | 54.84027 | 30.72047 | 30081 ft | 459 kts | 63° |
| 2026-05-05 14:11 | 54.85526 | 30.76924 | 30251 ft | 460 kts | 63° |
| 2026-05-05 14:11 | 54.87035 | 30.81840 | 30419 ft | 461 kts | 63° |
| 2026-05-05 14:11 | 54.88530 | 30.86721 | 30577 ft | 462 kts | 63° |
| 2026-05-05 14:11 | 54.90034 | 30.91638 | 30740 ft | 463 kts | 63° |
| 2026-05-05 14:12 | 54.91542 | 30.96578 | 30892 ft | 464 kts | 63° |
| 2026-05-05 14:12 | 54.93058 | 31.01553 | 31049 ft | 465 kts | 63° |
| 2026-05-05 14:12 | 54.94574 | 31.06535 | 31195 ft | 467 kts | 62° |
| 2026-05-05 14:12 | 54.96096 | 31.11547 | 31345 ft | 468 kts | 62° |
| 2026-05-05 14:13 | 54.97627 | 31.16597 | 31489 ft | 469 kts | 62° |
| 2026-05-05 14:13 | 54.99124 | 31.21546 | 31627 ft | 470 kts | 62° |
| 2026-05-05 14:13 | 55.00658 | 31.26623 | 31770 ft | 471 kts | 62° |
| 2026-05-05 14:13 | 55.02174 | 31.31650 | 31900 ft | 472 kts | 62° |
| 2026-05-05 14:14 | 55.03699 | 31.36718 | 32037 ft | 473 kts | 62° |
| 2026-05-05 14:14 | 55.05226 | 31.41800 | 32163 ft | 474 kts | 62° |
| 2026-05-05 14:14 | 55.06757 | 31.46908 | 32293 ft | 475 kts | 62° |
| 2026-05-05 14:14 | 55.08283 | 31.52006 | 32417 ft | 475 kts | 62° |
| 2026-05-05 14:15 | 55.09809 | 31.57112 | 32536 ft | 476 kts | 62° |
| 2026-05-05 14:15 | 55.11357 | 31.62304 | 32659 ft | 477 kts | 62° |
| 2026-05-05 14:15 | 55.12888 | 31.67445 | 32769 ft | 478 kts | 63° |
| 2026-05-05 14:15 | 55.14430 | 31.72638 | 32884 ft | 479 kts | 63° |
| 2026-05-05 14:16 | 55.17495 | 31.82984 | 32999 ft | 482 kts | 63° |
| 2026-05-05 14:16 | 55.20564 | 31.93381 | 32999 ft | 480 kts | 63° |
| 2026-05-05 14:17 | 55.23598 | 32.03698 | 33000 ft | 479 kts | 63° |
| 2026-05-05 14:17 | 55.26656 | 32.14140 | 33000 ft | 480 kts | 63° |
| 2026-05-05 14:18 | 55.29678 | 32.24521 | 33001 ft | 480 kts | 64° |
| 2026-05-05 14:18 | 55.32648 | 32.35048 | 33000 ft | 480 kts | 63° |
| 2026-05-05 14:19 | 55.35653 | 32.45427 | 33000 ft | 480 kts | 63° |
| 2026-05-05 14:19 | 55.38684 | 32.55914 | 33000 ft | 480 kts | 63° |
| 2026-05-05 14:20 | 55.41692 | 32.66361 | 33000 ft | 480 kts | 64° |
| 2026-05-05 14:20 | 55.44715 | 32.76898 | 32999 ft | 480 kts | 64° |
| 2026-05-05 14:21 | 55.47696 | 32.87325 | 33000 ft | 480 kts | 64° |
| 2026-05-05 14:21 | 55.50693 | 32.97849 | 33000 ft | 480 kts | 64° |
| 2026-05-05 14:22 | 55.53686 | 33.08394 | 33000 ft | 480 kts | 64° |
| 2026-05-05 14:22 | 55.56673 | 33.18954 | 32999 ft | 480 kts | 64° |
| 2026-05-05 14:23 | 55.59611 | 33.29374 | 32999 ft | 468 kts | 64° |
| 2026-05-05 14:23 | 55.62524 | 33.39747 | 33002 ft | 473 kts | 64° |
| 2026-05-05 14:24 | 55.64501 | 33.46803 | 33000 ft | 474 kts | 64° |
| 2026-05-05 14:24 | 55.67420 | 33.57246 | 32999 ft | 472 kts | 64° |
| 2026-05-05 14:25 | 55.70318 | 33.67639 | 32993 ft | 460 kts | 64° |
| 2026-05-05 14:25 | 55.71690 | 33.72570 | 32999 ft | 446 kts | 64° |
| 2026-05-05 14:25 | 55.73067 | 33.77523 | 33002 ft | 442 kts | 64° |
| 2026-05-05 14:26 | 55.75791 | 33.87342 | 33001 ft | 448 kts | 64° |
| 2026-05-05 14:26 | 55.78541 | 33.97266 | 32999 ft | 448 kts | 64° |
| 2026-05-05 14:27 | 55.80881 | 34.07425 | 32972 ft | 446 kts | 79° |
| 2026-05-05 14:27 | 55.81360 | 34.12868 | 32403 ft | 444 kts | 83° |
| 2026-05-05 14:27 | 55.81716 | 34.18306 | 31510 ft | 446 kts | 84° |
| 2026-05-05 14:28 | 55.82635 | 34.33296 | 29377 ft | 444 kts | 84° |
| 2026-05-05 14:28 | 55.84571 | 34.65997 | 25828 ft | 436 kts | 85° |
| 2026-05-05 14:28 | 55.86369 | 34.97541 | 22206 ft | 427 kts | 84° |
| 2026-05-05 14:28 | 55.88119 | 35.28901 | 19456 ft | 413 kts | 84° |
| 2026-05-05 14:29 | 55.89772 | 35.58801 | 16929 ft | 399 kts | 84° |
| 2026-05-05 14:29 | 55.91017 | 35.80448 | 15068 ft | 385 kts | 83° |
| 2026-05-05 14:29 | 55.91386 | 35.85058 | 15001 ft | 381 kts | 82° |
| 2026-05-05 14:29 | 55.91749 | 35.89655 | 15004 ft | 388 kts | 83° |
| 2026-05-05 14:30 | 55.92099 | 35.94349 | 14872 ft | 386 kts | 83° |
| 2026-05-05 14:30 | 55.92446 | 35.99014 | 14034 ft | 385 kts | 83° |
| 2026-05-05 14:30 | 55.92799 | 36.03652 | 13385 ft | 378 kts | 83° |
| 2026-05-05 14:30 | 55.93188 | 36.08140 | 12622 ft | 375 kts | 77° |
| 2026-05-05 14:31 | 55.94026 | 36.12457 | 11903 ft | 370 kts | 64° |
| 2026-05-05 14:31 | 55.95325 | 36.16259 | 11372 ft | 357 kts | 52° |
| 2026-05-05 14:31 | 55.96909 | 36.19368 | 11008 ft | 332 kts | 42° |
| 2026-05-05 14:31 | 55.98629 | 36.21734 | 10788 ft | 309 kts | 33° |
| 2026-05-05 14:32 | 56.00435 | 36.23481 | 10507 ft | 299 kts | 25° |
| 2026-05-05 14:32 | 56.02279 | 36.24874 | 10368 ft | 290 kts | 22° |
| 2026-05-05 14:32 | 56.04125 | 36.26173 | 10157 ft | 289 kts | 22° |
| 2026-05-05 14:32 | 56.05948 | 36.27450 | 9856 ft | 289 kts | 22° |
| 2026-05-05 14:33 | 56.07788 | 36.28748 | 9497 ft | 287 kts | 22° |
| 2026-05-05 14:33 | 56.09597 | 36.30033 | 9147 ft | 284 kts | 22° |
| 2026-05-05 14:33 | 56.11381 | 36.31307 | 8830 ft | 282 kts | 22° |
| 2026-05-05 14:33 | 56.13157 | 36.32578 | 8534 ft | 281 kts | 22° |
| 2026-05-05 14:34 | 56.17057 | 36.35561 | 7921 ft | 279 kts | 32° |
| 2026-05-05 14:34 | 56.23332 | 36.43759 | 6858 ft | 276 kts | 38° |
| 2026-05-05 14:34 | 56.24691 | 36.46112 | 6984 ft | 269 kts | 51° |
| 2026-05-05 14:34 | 56.25760 | 36.48872 | 7001 ft | 277 kts | 61° |
| 2026-05-05 14:35 | 56.26542 | 36.51925 | 6995 ft | 275 kts | 70° |
| 2026-05-05 14:35 | 56.27114 | 36.55179 | 7000 ft | 275 kts | 75° |
| 2026-05-05 14:35 | 56.27607 | 36.58452 | 6999 ft | 275 kts | 75° |
| 2026-05-05 14:35 | 56.28089 | 36.61737 | 6999 ft | 275 kts | 75° |
| 2026-05-05 14:36 | 56.30053 | 36.75037 | 6999 ft | 275 kts | 76° |
| 2026-05-05 14:36 | 56.31525 | 36.84429 | 6994 ft | 275 kts | 68° |
| 2026-05-05 14:36 | 56.32453 | 36.87431 | 6999 ft | 275 kts | 54° |
| 2026-05-05 14:36 | 56.33728 | 36.90083 | 7003 ft | 275 kts | 46° |
| 2026-05-05 14:37 | 56.35100 | 36.92508 | 7000 ft | 276 kts | 44° |
| 2026-05-05 14:37 | 56.36496 | 36.94911 | 6999 ft | 275 kts | 44° |
| 2026-05-05 14:37 | 56.37897 | 36.97336 | 6999 ft | 275 kts | 45° |
| 2026-05-05 14:37 | 56.39288 | 36.99764 | 6999 ft | 275 kts | 45° |
| 2026-05-05 14:38 | 56.40632 | 37.02264 | 6997 ft | 275 kts | 51° |
| 2026-05-05 14:38 | 56.41734 | 37.05124 | 7000 ft | 275 kts | 60° |
| 2026-05-05 14:38 | 56.42672 | 37.08175 | 7001 ft | 275 kts | 63° |
| 2026-05-05 14:38 | 56.43572 | 37.11278 | 6999 ft | 275 kts | 63° |
| 2026-05-05 14:39 | 56.44477 | 37.14403 | 6999 ft | 275 kts | 63° |
| 2026-05-05 14:39 | 56.45344 | 37.17541 | 6998 ft | 275 kts | 68° |
| 2026-05-05 14:39 | 56.45953 | 37.20830 | 6999 ft | 275 kts | 77° |
| 2026-05-05 14:39 | 56.45935 | 37.24264 | 6988 ft | 275 kts | 111° |
| 2026-05-05 14:40 | 56.44789 | 37.27011 | 7004 ft | 274 kts | 148° |
| 2026-05-05 14:40 | 56.43046 | 37.28099 | 6916 ft | 261 kts | 173° |
| 2026-05-05 14:40 | 56.41273 | 37.28318 | 6808 ft | 244 kts | 179° |
| 2026-05-05 14:40 | 56.39618 | 37.28384 | 6714 ft | 227 kts | 180° |
| 2026-05-05 14:41 | 56.38106 | 37.28434 | 6644 ft | 209 kts | 180° |
| 2026-05-05 14:41 | 56.36663 | 37.28485 | 6441 ft | 200 kts | 180° |
| 2026-05-05 14:41 | 56.35286 | 37.28540 | 6237 ft | 195 kts | 180° |
| 2026-05-05 14:41 | 56.33910 | 37.28598 | 5908 ft | 196 kts | 179° |
| 2026-05-05 14:42 | 56.32531 | 37.28663 | 5597 ft | 195 kts | 179° |
| 2026-05-05 14:42 | 56.31178 | 37.28731 | 5292 ft | 194 kts | 179° |
| 2026-05-05 14:42 | 56.29809 | 37.28806 | 4985 ft | 193 kts | 179° |
| 2026-05-05 14:42 | 56.28473 | 37.28889 | 4701 ft | 191 kts | 179° |
| 2026-05-05 14:43 | 56.27141 | 37.28983 | 4431 ft | 189 kts | 178° |
| 2026-05-05 14:43 | 56.25814 | 37.29099 | 4139 ft | 188 kts | 178° |
| 2026-05-05 14:43 | 56.24507 | 37.29420 | 3841 ft | 187 kts | 168° |
| 2026-05-05 14:43 | 56.23231 | 37.30058 | 3549 ft | 186 kts | 164° |
| 2026-05-05 14:44 | 56.21986 | 37.30744 | 3256 ft | 185 kts | 164° |
| 2026-05-05 14:44 | 56.20736 | 37.31393 | 2964 ft | 185 kts | 165° |
| 2026-05-05 14:44 | 56.19519 | 37.31999 | 2682 ft | 184 kts | 166° |
| 2026-05-05 14:44 | 56.18292 | 37.32609 | 2444 ft | 177 kts | 165° |
| 2026-05-05 14:45 | 56.17117 | 37.33218 | 2172 ft | 173 kts | 161° |
| 2026-05-05 14:45 | 56.16046 | 37.34125 | 2131 ft | 168 kts | 148° |
| 2026-05-05 14:45 | 56.15110 | 37.35479 | 2151 ft | 174 kts | 135° |
| 2026-05-05 14:45 | 56.13676 | 37.38303 | 2123 ft | 172 kts | 133° |
| 2026-05-05 14:46 | 56.08824 | 37.47948 | 2126 ft | 172 kts | 134° |
| 2026-05-05 14:46 | 56.03992 | 37.57410 | 2143 ft | 172 kts | 133° |
| 2026-05-05 14:46 | 56.00929 | 37.63459 | 2129 ft | 172 kts | 133° |
| 2026-05-05 14:46 | 56.00137 | 37.64875 | 2115 ft | 156 kts | 150° |
| 2026-05-05 14:47 | 55.99125 | 37.65176 | 2139 ft | 158 kts | 198° |
| 2026-05-05 14:47 | 55.98268 | 37.63984 | 2157 ft | 164 kts | 245° |
| 2026-05-05 14:47 | 55.98140 | 37.62074 | 2131 ft | 159 kts | 283° |
| 2026-05-05 14:47 | 55.98445 | 37.60189 | 2187 ft | 162 kts | 291° |
| 2026-05-05 14:48 | 55.98804 | 37.58390 | 2091 ft | 152 kts | 291° |
| 2026-05-05 14:48 | 55.99138 | 37.56655 | 2147 ft | 150 kts | 287° |
| 2026-05-05 14:48 | 55.99223 | 37.54838 | 2124 ft | 149 kts | 264° |
| 2026-05-05 14:48 | 55.98963 | 37.53094 | 2140 ft | 147 kts | 252° |
| 2026-05-05 14:49 | 55.98637 | 37.51432 | 2028 ft | 142 kts | 254° |
| 2026-05-05 14:49 | 55.98374 | 37.49765 | 1500 ft | 148 kts | 256° |
| 2026-05-05 14:49 | 55.98111 | 37.47995 | 1175 ft | 149 kts | 256° |
| 2026-05-05 14:49 | 55.97847 | 37.46298 | 895 ft | 145 kts | 258° |
| 2026-05-05 14:50 | 55.97602 | 37.44581 | 741 ft | 142 kts | 256° |
| 2026-05-05 14:50 | 55.97374 | 37.43036 | 639 ft | 104 kts | 253° |
| 2026-05-05 14:50 | 55.97263 | 37.42288 | 638 ft | 42 kts | 255° |
| 2026-05-05 14:50 | 55.97204 | 37.41853 | 638 ft | 30 kts | 256° |
| 2026-05-05 14:51 | 55.97149 | 37.41529 | 638 ft | 24 kts | 255° |
| 2026-05-05 14:51 | 55.97149 | 37.41390 | 638 ft | 12 kts | 303° |
| 2026-05-05 14:51 | 55.97237 | 37.41310 | 638 ft | 11 kts | 347° |
| 2026-05-05 14:51 | 55.97250 | 37.41304 | 638 ft | 0 kts | 349° |
| 2026-05-05 14:52 | 55.97257 | 37.41301 | 638 ft | 5 kts | 349° |
| 2026-05-05 14:52 | 55.97335 | 37.41260 | 638 ft | 13 kts | 352° |
| 2026-05-05 14:52 | 55.97431 | 37.41220 | 638 ft | 18 kts | 345° |
| 2026-05-05 14:52 | 55.97527 | 37.41217 | 638 ft | 11 kts | 40° |
| 2026-05-05 14:53 | 55.97565 | 37.41401 | 638 ft | 22 kts | 86° |
| 2026-05-05 14:53 | 55.97613 | 37.41591 | 638 ft | 17 kts | 23° |
| 2026-05-05 14:53 | 55.97690 | 37.41577 | 638 ft | 19 kts | 347° |
| 2026-05-05 14:53 | 55.97798 | 37.41500 | 638 ft | 14 kts | 300° |
| 2026-05-05 14:54 | 55.97802 | 37.41387 | 638 ft | 7 kts | 257° |
| 2026-05-05 14:54 | 55.97789 | 37.41301 | 638 ft | 4 kts | 256° |
| 2026-05-05 14:54 | 55.97789 | 37.41299 | 638 ft | 0 kts | 256° |
| 2026-05-05 14:54 | 55.97790 | 37.41304 | 638 ft | 0 kts | 254° |
| 2026-05-05 14:55 | 55.97790 | 37.41305 | 638 ft | 0 kts | 253° |